createdAt,value
2019-01-12T00:01:52.671Z,15.88
2019-01-12T00:04:22.023Z,7.28
2019-01-12T00:06:51.268Z,16.23
2019-01-12T00:09:20.516Z,9.00
2019-01-12T00:11:49.790Z,16.73
2019-01-12T00:14:19.110Z,8.20
2019-01-12T00:16:48.351Z,11.53
2019-01-12T00:19:17.624Z,5.83
2019-01-12T00:21:46.863Z,9.20
2019-01-12T00:24:16.098Z,10.05
2019-01-12T00:26:45.681Z,10.98
2019-01-12T00:29:14.933Z,11.05
2019-01-12T00:31:44.253Z,20.40
2019-01-12T00:34:13.444Z,11.73
2019-01-12T00:36:42.623Z,14.10
2019-01-12T00:39:11.943Z,13.40
2019-01-12T00:41:41.221Z,20.60
2019-01-12T00:44:10.472Z,25.00
2019-01-12T00:46:39.785Z,12.85
2019-01-12T00:49:09.057Z,18.30
2019-01-12T00:51:38.373Z,18.10
2019-01-12T00:54:07.623Z,14.10
2019-01-12T00:56:36.977Z,21.73
2019-01-12T00:59:06.154Z,18.73
2019-01-12T01:01:35.400Z,26.93
2019-01-12T01:04:04.622Z,19.07
2019-01-12T01:06:33.928Z,23.30
2019-01-12T01:09:03.435Z,18.90
2019-01-12T01:11:32.773Z,22.02
2019-01-12T01:14:01.949Z,20.65
2019-01-12T01:16:31.188Z,18.73
2019-01-12T01:19:00.408Z,16.37
2019-01-12T01:21:29.655Z,14.30
2019-01-12T01:23:58.915Z,15.83
2019-01-12T01:26:28.206Z,14.98
2019-01-12T01:28:57.439Z,13.50
2019-01-12T01:31:26.611Z,12.47
2019-01-12T01:33:55.888Z,12.55
2019-01-12T01:36:25.055Z,12.60
2019-01-12T01:38:54.354Z,12.07
2019-01-12T01:41:23.641Z,16.60
2019-01-12T01:43:52.886Z,15.85
2019-01-12T01:46:22.147Z,17.27
2019-01-12T01:48:51.359Z,17.23
2019-01-12T01:51:20.681Z,11.75
2019-01-12T01:53:49.853Z,13.70
2019-01-12T01:56:19.147Z,15.18
2019-01-12T01:58:48.416Z,27.10
2019-01-12T02:01:17.598Z,16.40
2019-01-12T02:03:46.928Z,16.75
2019-01-12T02:06:16.174Z,22.90
2019-01-12T02:08:45.363Z,14.23
2019-01-12T02:11:14.640Z,24.55
2019-01-12T02:13:43.874Z,18.48
2019-01-12T02:16:13.047Z,22.65
2019-01-12T02:18:42.255Z,21.52
2019-01-12T02:21:11.522Z,20.10
2019-01-12T02:23:40.781Z,25.17
2019-01-12T02:26:10.130Z,49.77
2019-01-12T02:28:39.446Z,37.70
2019-01-12T02:31:09.076Z,20.62
2019-01-12T02:33:38.769Z,20.52
2019-01-12T02:36:08.025Z,26.50
2019-01-12T02:38:37.347Z,23.30
2019-01-12T02:41:06.630Z,20.25
2019-01-12T02:43:35.869Z,22.87
2019-01-12T02:46:05.591Z,27.95
2019-01-12T02:48:34.918Z,19.82
2019-01-12T02:51:04.367Z,19.30
2019-01-12T02:53:33.682Z,18.95
2019-01-12T02:56:03.057Z,28.07
2019-01-12T02:58:32.304Z,17.80
2019-01-12T03:01:01.554Z,21.87
2019-01-12T03:03:30.908Z,20.25
2019-01-12T03:06:00.226Z,29.25
2019-01-12T03:08:29.493Z,27.85
2019-01-12T03:10:58.704Z,22.52
2019-01-12T03:13:28.063Z,18.73
2019-01-12T03:15:57.320Z,24.43
2019-01-12T03:18:26.626Z,18.15
2019-01-12T03:20:55.939Z,19.15
2019-01-12T03:23:25.256Z,18.57
2019-01-12T03:25:54.525Z,14.68
2019-01-12T03:28:23.789Z,15.98
2019-01-12T03:30:52.983Z,13.25
2019-01-12T03:33:22.262Z,13.30
2019-01-12T03:35:51.572Z,13.43
2019-01-12T03:38:20.847Z,16.40
2019-01-12T03:40:50.161Z,11.20
2019-01-12T03:43:19.459Z,14.60
2019-01-12T03:45:49.931Z,14.80
2019-01-12T03:48:19.132Z,11.90
2019-01-12T03:50:48.379Z,7.15
2019-01-12T03:53:17.616Z,12.50
2019-01-12T03:55:46.885Z,11.15
2019-01-12T03:58:16.133Z,12.03
2019-01-12T04:00:45.364Z,7.83
2019-01-12T04:03:14.632Z,7.80
2019-01-12T04:05:43.888Z,7.50
2019-01-12T04:08:13.185Z,7.65
2019-01-12T04:10:42.463Z,8.00
2019-01-12T04:13:11.672Z,12.18
2019-01-12T04:15:40.929Z,12.33
2019-01-12T04:18:10.119Z,15.72
2019-01-12T04:20:39.366Z,16.40
2019-01-12T04:23:08.647Z,23.10
2019-01-12T04:25:37.991Z,17.67
2019-01-12T04:28:07.239Z,23.92
2019-01-12T04:30:36.549Z,22.07
2019-01-12T04:33:05.828Z,25.43
2019-01-12T04:35:35.069Z,31.97
2019-01-12T04:38:04.328Z,25.17
2019-01-12T04:40:33.715Z,36.15
2019-01-12T04:43:02.949Z,29.95
2019-01-12T04:45:32.218Z,29.67
2019-01-12T04:48:01.585Z,35.30
2019-01-12T04:50:30.840Z,25.17
2019-01-12T04:53:00.089Z,31.95
2019-01-12T04:55:29.441Z,35.20
2019-01-12T04:57:58.694Z,40.75
2019-01-12T05:00:28.012Z,26.17
2019-01-12T05:02:57.279Z,28.67
2019-01-12T05:05:26.528Z,33.35
2019-01-12T05:07:55.781Z,29.20
2019-01-12T05:10:24.984Z,31.55
2019-01-12T05:12:54.242Z,31.45
2019-01-12T05:15:23.505Z,28.83
2019-01-12T05:17:52.787Z,33.08
2019-01-12T05:20:22.361Z,43.98
2019-01-12T05:22:51.616Z,33.58
2019-01-12T05:25:20.909Z,43.30
2019-01-12T05:27:50.155Z,49.60
2019-01-12T05:30:21.619Z,43.98
2019-01-12T05:32:51.270Z,47.25
2019-01-12T05:35:20.712Z,38.80
2019-01-12T05:37:49.881Z,49.38
2019-01-12T05:40:19.357Z,46.10
2019-01-12T05:42:48.532Z,55.60
2019-01-12T05:45:17.713Z,48.78
2019-01-12T05:47:46.924Z,58.23
2019-01-12T05:50:16.104Z,58.13
2019-01-12T05:52:45.417Z,57.27
2019-01-12T05:55:14.592Z,60.75
2019-01-12T05:57:43.781Z,57.50
2019-01-12T06:00:18.579Z,57.35
2019-01-12T06:02:47.819Z,59.23
2019-01-12T06:05:17.084Z,64.35
2019-01-12T06:07:46.352Z,59.60
2019-01-12T06:10:15.727Z,67.78
2019-01-12T06:12:44.923Z,63.95
2019-01-12T06:15:15.140Z,78.07
2019-01-12T06:17:44.464Z,76.25
2019-01-12T06:20:14.806Z,83.37
2019-01-12T06:22:44.264Z,67.80
2019-01-12T06:25:13.917Z,73.07
2019-01-12T06:27:43.167Z,71.57
2019-01-12T06:30:20.017Z,68.62
2019-01-12T06:32:49.269Z,80.95
2019-01-12T06:35:18.592Z,68.42
2019-01-12T06:37:48.444Z,77.27
2019-01-12T06:40:19.535Z,66.92
2019-01-12T06:42:48.997Z,77.42
2019-01-12T06:45:19.130Z,68.05
2019-01-12T06:47:48.374Z,68.78
2019-01-12T06:50:19.175Z,65.35
2019-01-12T06:52:48.550Z,65.08
2019-01-12T06:55:17.826Z,80.12
2019-01-12T06:57:47.140Z,76.17
2019-01-12T07:00:20.690Z,68.02
2019-01-12T07:02:50.244Z,86.22
2019-01-12T07:05:19.434Z,73.72
2019-01-12T07:07:48.707Z,69.30
2019-01-12T07:10:18.273Z,72.60
2019-01-12T07:12:47.526Z,81.47
2019-01-12T07:15:16.732Z,74.65
2019-01-12T07:17:45.994Z,66.50
2019-01-12T07:20:16.762Z,76.75
2019-01-12T07:22:46.473Z,64.65
2019-01-12T07:25:16.193Z,60.30
2019-01-12T07:27:45.528Z,69.35
2019-01-12T07:30:22.691Z,68.33
2019-01-12T07:32:51.942Z,67.08
2019-01-12T07:35:21.191Z,66.40
2019-01-12T07:37:50.555Z,57.33
2019-01-12T07:40:19.880Z,58.33
2019-01-12T07:42:49.304Z,61.88
2019-01-12T07:45:18.694Z,60.20
2019-01-12T07:47:48.082Z,60.60
2019-01-12T07:50:17.414Z,49.25
2019-01-12T07:52:46.617Z,57.20
2019-01-12T07:55:15.886Z,59.40
2019-01-12T07:57:48.123Z,57.38
2019-01-12T08:00:22.077Z,58.45
2019-01-12T08:02:51.629Z,48.58
2019-01-12T08:05:22.111Z,58.35
2019-01-12T08:07:51.445Z,56.40
2019-01-12T08:10:33.161Z,47.78
2019-01-12T08:13:02.463Z,46.10
2019-01-12T08:15:31.928Z,52.70
2019-01-12T08:18:01.258Z,61.00
2019-01-12T08:20:30.626Z,50.90
2019-01-12T08:22:59.860Z,46.42
2019-01-12T08:25:29.038Z,48.17
2019-01-12T08:27:58.610Z,56.40
2019-01-12T08:30:27.986Z,47.90
2019-01-12T08:32:57.530Z,50.55
2019-01-12T08:35:26.826Z,39.18
2019-01-12T08:37:56.098Z,48.70
2019-01-12T08:40:25.586Z,43.98
2019-01-12T08:42:54.871Z,55.58
2019-01-12T08:45:25.474Z,43.60
2019-01-12T08:47:54.873Z,46.68
2019-01-12T08:50:24.365Z,47.38
2019-01-12T08:52:53.986Z,39.13
2019-01-12T08:55:24.647Z,48.55
2019-01-12T08:57:54.248Z,57.65
2019-01-12T09:00:23.979Z,45.60
2019-01-12T09:02:53.161Z,48.08
2019-01-12T09:05:22.456Z,43.08
2019-01-12T09:07:51.649Z,42.93
2019-01-12T09:10:21.979Z,42.45
2019-01-12T09:12:51.619Z,41.30
2019-01-12T09:15:21.331Z,39.00
2019-01-12T09:17:50.581Z,40.95
2019-01-12T09:20:19.898Z,37.38
2019-01-12T09:22:49.332Z,41.50
2019-01-12T09:25:18.687Z,36.38
2019-01-12T09:27:47.898Z,43.55
2019-01-12T09:30:19.691Z,33.83
2019-01-12T09:32:49.680Z,37.35
2019-01-12T09:35:19.619Z,38.92
2019-01-12T09:37:48.951Z,36.63
2019-01-12T09:40:20.199Z,30.17
2019-01-12T09:42:49.586Z,38.45
2019-01-12T09:45:19.513Z,41.92
2019-01-12T09:47:49.058Z,35.52
2019-01-12T09:50:19.774Z,41.50
2019-01-12T09:52:51.231Z,39.98
2019-01-12T09:55:20.584Z,32.70
2019-01-12T09:57:49.883Z,31.33
2019-01-12T10:00:24.679Z,42.35
2019-01-12T10:02:54.011Z,29.65
2019-01-12T10:05:23.306Z,32.83
2019-01-12T10:07:52.830Z,37.40
2019-01-12T10:10:23.046Z,30.88
2019-01-12T10:12:52.380Z,33.60
2019-01-12T10:15:22.654Z,33.23
2019-01-12T10:17:52.337Z,34.00
2019-01-12T10:20:21.692Z,31.25
2019-01-12T10:22:50.950Z,34.05
2019-01-12T10:25:20.214Z,28.27
2019-01-12T10:27:49.398Z,34.65
2019-01-12T10:30:23.857Z,30.65
2019-01-12T10:32:53.376Z,26.35
2019-01-12T10:35:22.689Z,28.32
2019-01-12T10:37:51.969Z,27.58
2019-01-12T10:40:21.327Z,33.55
2019-01-12T10:42:51.152Z,25.30
2019-01-12T10:45:22.497Z,27.80
2019-01-12T10:47:52.384Z,25.32
2019-01-12T10:50:33.197Z,21.45
2019-01-12T10:53:02.591Z,26.95
2019-01-12T10:55:31.928Z,26.68
2019-01-12T10:58:02.161Z,23.10
2019-01-12T11:00:34.491Z,22.45
2019-01-12T11:03:04.326Z,30.52
2019-01-12T11:05:34.007Z,27.48
2019-01-12T11:08:03.572Z,33.38
2019-01-12T11:10:32.885Z,26.70
2019-01-12T11:13:02.324Z,28.85
2019-01-12T11:15:31.664Z,26.87
2019-01-12T11:18:01.027Z,27.17
2019-01-12T11:20:30.408Z,21.12
2019-01-12T11:22:59.887Z,19.55
2019-01-12T11:25:29.169Z,15.43
2019-01-12T11:27:58.395Z,27.07
2019-01-12T11:30:27.706Z,21.05
2019-01-12T11:32:56.968Z,21.73
2019-01-12T11:35:26.447Z,20.52
2019-01-12T11:37:55.645Z,17.35
2019-01-12T11:40:25.013Z,17.55
2019-01-12T11:42:54.334Z,19.02
2019-01-12T11:45:24.289Z,23.85
2019-01-12T11:47:53.973Z,17.20
2019-01-12T11:50:23.350Z,23.65
2019-01-12T11:52:52.607Z,17.37
2019-01-12T11:55:21.797Z,21.12
2019-01-12T11:57:51.093Z,16.00
2019-01-12T12:00:28.847Z,13.95
2019-01-12T12:02:58.239Z,24.60
2019-01-12T12:05:27.570Z,14.60
2019-01-12T12:07:57.282Z,13.32
2019-01-12T12:10:26.809Z,11.50
2019-01-12T12:12:56.054Z,17.10
2019-01-12T12:15:25.283Z,12.75
2019-01-12T12:17:54.608Z,16.82
2019-01-12T12:20:26.377Z,15.40
2019-01-12T12:22:55.886Z,12.50
2019-01-12T12:25:25.171Z,19.52
2019-01-12T12:27:54.716Z,15.00
2019-01-12T12:30:33.172Z,14.40
2019-01-12T12:33:02.466Z,17.50
2019-01-12T12:35:37.639Z,15.98
2019-01-12T12:38:02.719Z,17.32
2019-01-12T12:40:31.929Z,18.02
2019-01-12T12:43:01.262Z,15.25
2019-01-12T12:45:32.958Z,27.15
2019-01-12T12:48:02.296Z,19.07
2019-01-12T12:50:31.659Z,21.12
2019-01-12T12:53:00.962Z,23.57
2019-01-12T12:55:30.198Z,24.60
2019-01-12T12:58:01.047Z,22.32
2019-01-12T13:00:32.897Z,20.70
2019-01-12T13:03:02.154Z,21.33
2019-01-12T13:05:31.781Z,17.92
2019-01-12T13:08:01.188Z,19.20
2019-01-12T13:10:31.932Z,23.38
2019-01-12T13:13:01.292Z,18.48
2019-01-12T13:15:30.798Z,25.85
2019-01-12T13:18:00.490Z,24.40
2019-01-12T13:20:29.778Z,20.68
2019-01-12T13:22:59.171Z,19.37
2019-01-12T13:25:29.549Z,18.50
2019-01-12T13:28:01.150Z,20.12
2019-01-12T13:30:30.556Z,20.12
2019-01-12T13:32:59.884Z,20.82
2019-01-12T13:35:29.462Z,22.20
2019-01-12T13:37:59.047Z,20.62
2019-01-12T13:40:29.441Z,24.72
2019-01-12T13:42:58.800Z,22.82
2019-01-12T13:45:28.163Z,20.80
2019-01-12T13:47:57.424Z,23.12
2019-01-12T13:50:28.150Z,18.50
2019-01-12T13:52:57.725Z,18.98
2019-01-12T13:55:28.701Z,16.62
2019-01-12T13:57:57.973Z,15.80
2019-01-12T14:00:35.315Z,30.90
2019-01-12T14:03:06.735Z,27.98
2019-01-12T14:05:36.191Z,19.27
2019-01-12T14:08:06.772Z,16.10
2019-01-12T14:10:36.241Z,16.52
2019-01-12T14:13:06.879Z,19.82
2019-01-12T14:15:36.376Z,15.28
2019-01-12T14:18:06.341Z,14.53
2019-01-12T14:20:42.025Z,14.73
2019-01-12T14:23:11.699Z,12.47
2019-01-12T14:25:41.026Z,12.85
2019-01-12T14:28:10.305Z,13.60
2019-01-12T14:30:39.555Z,14.50
2019-01-12T14:33:08.737Z,13.40
2019-01-12T14:35:38.041Z,13.03
2019-01-12T14:38:07.267Z,15.88
2019-01-12T14:40:36.595Z,14.07
2019-01-12T14:43:06.198Z,12.60
2019-01-12T14:45:35.757Z,16.05
2019-01-12T14:48:05.858Z,15.20
2019-01-12T14:50:35.547Z,14.05
2019-01-12T14:53:05.497Z,19.82
2019-01-12T14:55:34.732Z,17.17
2019-01-12T14:58:04.757Z,15.28
2019-01-12T15:00:33.964Z,14.70
2019-01-12T15:03:03.251Z,18.27
2019-01-12T15:05:33.884Z,22.30
2019-01-12T15:08:03.211Z,25.95
2019-01-12T15:10:32.916Z,22.73
2019-01-12T15:13:02.522Z,26.50
2019-01-12T15:15:31.808Z,21.15
2019-01-12T15:18:01.069Z,21.17
2019-01-12T15:20:30.994Z,28.75
2019-01-12T15:23:00.766Z,24.32
2019-01-12T15:25:30.027Z,26.75
2019-01-12T15:27:59.386Z,28.00
2019-01-12T15:30:30.401Z,19.55
2019-01-12T15:33:01.392Z,23.07
2019-01-12T15:35:32.331Z,23.60
2019-01-12T15:38:01.581Z,19.77
2019-01-12T15:40:30.860Z,24.80
2019-01-12T15:43:00.158Z,24.10
2019-01-12T15:45:29.404Z,26.60
2019-01-12T15:47:58.734Z,20.72
2019-01-12T15:50:28.365Z,25.08
2019-01-12T15:52:57.696Z,21.12
2019-01-12T15:55:27.243Z,21.20
2019-01-12T15:57:56.539Z,20.05
2019-01-12T16:00:27.713Z,24.87
2019-01-12T16:02:57.278Z,32.15
2019-01-12T16:05:27.307Z,19.80
2019-01-12T16:07:56.566Z,18.50
2019-01-12T16:10:25.894Z,22.40
2019-01-12T16:12:55.252Z,18.55
2019-01-12T16:15:26.235Z,25.57
2019-01-12T16:17:57.185Z,28.32
2019-01-12T16:20:32.678Z,20.68
2019-01-12T16:23:02.187Z,21.57
2019-01-12T16:25:31.421Z,21.93
2019-01-12T16:28:00.875Z,23.40
2019-01-12T16:30:30.210Z,18.12
2019-01-12T16:32:59.461Z,21.27
2019-01-12T16:35:28.768Z,17.98
2019-01-12T16:37:58.098Z,26.00
2019-01-12T16:40:27.682Z,27.60
2019-01-12T16:42:57.109Z,25.68
2019-01-12T16:45:26.458Z,24.55
2019-01-12T16:47:55.898Z,19.17
2019-01-12T16:50:25.270Z,23.90
2019-01-12T16:52:54.556Z,15.98
2019-01-12T16:55:23.907Z,14.58
2019-01-12T16:57:53.177Z,13.48
2019-01-12T17:00:30.859Z,10.28
2019-01-12T17:03:00.845Z,17.40
2019-01-12T17:05:30.140Z,10.30
2019-01-12T17:07:59.460Z,8.68
2019-01-12T17:10:28.752Z,8.78
2019-01-12T17:12:58.091Z,7.95
2019-01-12T17:15:34.431Z,13.60
2019-01-12T17:17:58.258Z,9.13
2019-01-12T17:20:28.774Z,16.82
2019-01-12T17:23:00.312Z,10.75
2019-01-12T17:25:29.546Z,10.82
2019-01-12T17:27:58.873Z,10.68
2019-01-12T17:30:28.152Z,11.10
2019-01-12T17:32:57.514Z,7.78
2019-01-12T17:35:27.359Z,8.33
2019-01-12T17:37:56.694Z,7.30
2019-01-12T17:40:26.052Z,6.42
2019-01-12T17:42:55.368Z,8.25
2019-01-12T17:45:26.121Z,8.20
2019-01-12T17:47:55.497Z,7.17
2019-01-12T17:50:28.715Z,10.13
2019-01-12T17:52:58.040Z,14.98
2019-01-12T17:55:28.566Z,16.12
2019-01-12T17:57:58.363Z,10.90
2019-01-12T18:01:00.673Z,14.43
2019-01-12T18:03:29.921Z,19.30
2019-01-12T18:05:59.245Z,19.73
2019-01-12T18:08:28.496Z,18.80
2019-01-12T18:10:57.666Z,20.85
2019-01-12T18:13:27.038Z,16.62
2019-01-12T18:15:56.339Z,16.90
2019-01-12T18:18:25.718Z,29.82
2019-01-12T18:20:54.978Z,25.97
2019-01-12T18:23:24.331Z,19.00
2019-01-12T18:25:53.664Z,35.80
2019-01-12T18:28:22.919Z,30.30
2019-01-12T18:30:52.134Z,23.62
2019-01-12T18:33:21.328Z,27.73
2019-01-12T18:35:50.567Z,23.85
2019-01-12T18:38:19.862Z,27.17
2019-01-12T18:40:49.033Z,21.65
2019-01-12T18:43:18.425Z,22.42
2019-01-12T18:45:47.709Z,20.72
2019-01-12T18:48:16.981Z,21.73
2019-01-12T18:50:46.220Z,22.22
2019-01-12T18:53:15.632Z,22.52
2019-01-12T18:55:44.879Z,23.18
2019-01-12T18:58:14.060Z,20.17
2019-01-12T19:00:43.373Z,26.02
2019-01-12T19:03:12.639Z,22.45
2019-01-12T19:05:41.884Z,23.15
2019-01-12T19:08:11.104Z,28.52
2019-01-12T19:10:40.384Z,23.27
2019-01-12T19:13:09.620Z,20.23
2019-01-12T19:15:38.921Z,18.98
2019-01-12T19:18:08.335Z,18.67
2019-01-12T19:20:38.267Z,18.37
2019-01-12T19:23:07.812Z,25.97
2019-01-12T19:25:37.096Z,27.00
2019-01-12T19:28:06.289Z,22.07
2019-01-12T19:30:35.600Z,16.93
2019-01-12T19:33:04.856Z,25.50
2019-01-12T19:35:34.104Z,20.55
2019-01-12T19:38:03.474Z,24.90
2019-01-12T19:40:32.810Z,22.85
2019-01-12T19:43:02.134Z,22.75
2019-01-12T19:45:31.343Z,20.70
2019-01-12T19:48:00.667Z,23.02
2019-01-12T19:50:29.993Z,21.73
2019-01-12T19:52:59.373Z,14.45
2019-01-12T19:55:28.626Z,16.95
2019-01-12T19:57:57.870Z,13.83
2019-01-12T20:00:34.539Z,22.27
2019-01-12T20:03:03.782Z,15.38
2019-01-12T20:05:33.052Z,23.70
2019-01-12T20:08:02.418Z,17.05
2019-01-12T20:10:31.856Z,22.45
2019-01-12T20:13:01.323Z,22.82
2019-01-12T20:15:30.882Z,20.23
2019-01-12T20:18:02.149Z,27.50
2019-01-12T20:20:31.175Z,20.30
2019-01-12T20:23:00.530Z,26.62
2019-01-12T20:25:31.343Z,24.98
2019-01-12T20:28:09.573Z,19.10
2019-01-12T20:31:27.852Z,28.05
2019-01-12T20:34:20.396Z,23.25
2019-01-12T20:37:31.427Z,18.37
2019-01-12T20:40:20.121Z,17.82
2019-01-12T20:43:25.374Z,29.92
2019-01-12T20:46:42.382Z,17.42
2019-01-12T20:49:23.127Z,18.70
2019-01-12T20:52:09.957Z,28.75
2019-01-12T20:55:02.203Z,17.55
2019-01-12T20:58:18.623Z,19.27
2019-01-12T21:01:04.861Z,29.60
2019-01-12T21:04:00.407Z,27.85
2019-01-12T21:07:08.232Z,24.35
2019-01-12T21:10:12.935Z,19.45
2019-01-12T21:13:18.274Z,20.15
2019-01-12T21:15:56.009Z,16.65
2019-01-12T21:18:25.362Z,26.85
2019-01-12T21:20:54.615Z,15.78
2019-01-12T21:23:23.977Z,20.43
2019-01-12T21:25:53.246Z,17.42
2019-01-12T21:28:22.507Z,16.27
2019-01-12T21:30:51.858Z,17.17
2019-01-12T21:33:21.177Z,13.25
2019-01-12T21:35:50.347Z,17.82
2019-01-12T21:38:19.637Z,15.45
2019-01-12T21:40:48.978Z,20.90
2019-01-12T21:43:18.154Z,18.30
2019-01-12T21:45:47.475Z,18.65
2019-01-12T21:48:16.788Z,16.75
2019-01-12T21:50:46.050Z,20.65
2019-01-12T21:53:15.349Z,16.20
2019-01-12T21:55:44.620Z,20.77
2019-01-12T21:58:13.941Z,14.78
2019-01-12T22:00:43.215Z,14.05
2019-01-12T22:03:12.483Z,11.50
2019-01-12T22:05:41.661Z,17.77
2019-01-12T22:08:10.884Z,16.17
2019-01-12T22:10:40.201Z,10.48
2019-01-12T22:13:09.454Z,16.73
2019-01-12T22:15:38.823Z,11.93
2019-01-12T22:18:08.135Z,21.60
2019-01-12T22:20:37.390Z,11.50
2019-01-12T22:23:06.593Z,13.85
2019-01-12T22:25:35.920Z,11.25
2019-01-12T22:28:05.646Z,12.47
2019-01-12T22:30:35.014Z,19.30
2019-01-12T22:33:04.445Z,13.93
2019-01-12T22:35:33.789Z,10.65
2019-01-12T22:38:03.155Z,19.12
2019-01-12T22:40:32.423Z,10.82
2019-01-12T22:43:01.681Z,13.50
2019-01-12T22:45:30.885Z,12.03
2019-01-12T22:48:00.124Z,17.17
2019-01-12T22:50:29.465Z,19.73
2019-01-12T22:52:58.674Z,23.62
2019-01-12T22:55:27.865Z,16.12
2019-01-12T22:57:57.115Z,26.17
2019-01-12T23:00:47.566Z,15.30
2019-01-12T23:03:17.745Z,20.80
2019-01-12T23:05:47.187Z,20.90
2019-01-12T23:08:16.491Z,20.65
2019-01-12T23:10:45.820Z,20.02
2019-01-12T23:13:15.056Z,26.65
2019-01-12T23:15:44.343Z,21.17
2019-01-12T23:20:43.185Z,28.35
2019-01-12T23:23:12.460Z,26.55
2019-01-12T23:25:41.759Z,30.35
2019-01-12T23:28:10.993Z,23.85
2019-01-12T23:30:40.334Z,27.80
2019-01-12T23:33:09.679Z,23.60
2019-01-12T23:35:39.027Z,26.97
2019-01-12T23:38:08.365Z,25.30
2019-01-12T23:40:37.531Z,35.05
2019-01-12T23:43:06.707Z,25.82
2019-01-12T23:45:36.070Z,19.62
2019-01-12T23:48:05.324Z,30.88
2019-01-12T23:50:34.681Z,34.78
2019-01-12T23:53:04.031Z,33.80
2019-01-12T23:55:33.303Z,31.02
2019-01-12T23:58:02.486Z,27.75
